createdAt,value
2022-08-22T00:01:34.060Z,2.00
2022-08-22T00:02:55.384Z,1.58
2022-08-22T00:02:58.943Z,1.80
2022-08-22T00:03:04.185Z,1.70
2022-08-22T00:03:11.075Z,2.40
2022-08-22T00:04:11.365Z,2.13
2022-08-22T00:06:41.989Z,2.33
2022-08-22T00:09:32.820Z,2.10
2022-08-22T00:12:23.393Z,2.05
2022-08-22T00:15:43.471Z,2.20
2022-08-22T00:18:16.343Z,2.00
2022-08-22T00:23:11.681Z,2.10
2022-08-22T00:25:40.182Z,2.40
2022-08-22T00:28:18.805Z,2.10
2022-08-22T00:30:59.292Z,1.90
2022-08-22T00:33:31.504Z,2.42
2022-08-22T00:38:33.309Z,2.13
2022-08-22T00:41:01.077Z,1.70
2022-08-22T00:43:40.302Z,2.15
2022-08-22T00:46:10.861Z,1.92
2022-08-22T00:48:51.585Z,2.38
2022-08-22T00:51:34.325Z,2.00
2022-08-22T00:54:21.274Z,1.70
2022-08-22T00:56:57.876Z,2.30
2022-08-22T00:59:25.559Z,2.10
2022-08-22T01:01:53.222Z,1.58
2022-08-22T01:04:27.573Z,2.22
2022-08-22T01:07:04.524Z,1.98
2022-08-22T01:09:41.377Z,2.03
2022-08-22T01:12:12.092Z,1.70
2022-08-22T01:14:39.792Z,2.20
2022-08-22T01:17:30.804Z,2.58
2022-08-22T01:20:24.856Z,2.17
2022-08-22T01:22:55.626Z,1.80
2022-08-22T01:25:49.887Z,1.92
2022-08-22T01:28:45.850Z,1.80
2022-08-22T01:31:29.201Z,1.88
2022-08-22T01:34:05.616Z,2.72
2022-08-22T01:36:46.658Z,1.95
2022-08-22T01:39:29.169Z,2.25
2022-08-22T01:41:57.046Z,1.70
2022-08-22T01:44:40.153Z,2.30
2022-08-22T01:47:12.669Z,1.70
2022-08-22T01:50:01.363Z,1.73
2022-08-22T01:52:41.132Z,1.85
2022-08-22T01:55:27.629Z,1.52
2022-08-22T01:58:00.707Z,1.63
2022-08-22T02:00:35.360Z,1.80
2022-08-22T02:03:03.569Z,1.52
2022-08-22T02:05:37.991Z,1.75
2022-08-22T02:08:14.685Z,1.90
2022-08-22T02:10:45.944Z,1.77
2022-08-22T02:13:13.647Z,1.60
2022-08-22T02:15:41.774Z,2.00
2022-08-22T02:18:21.610Z,1.65
2022-08-22T02:20:49.348Z,1.67
2022-08-22T02:23:22.695Z,2.00
2022-08-22T02:25:56.098Z,1.45
2022-08-22T02:28:32.925Z,1.80
2022-08-22T02:31:11.141Z,2.03
2022-08-22T02:33:47.153Z,2.38
2022-08-22T02:36:23.957Z,2.15
2022-08-22T02:39:24.031Z,2.42
2022-08-22T02:41:57.813Z,2.05
2022-08-22T02:44:25.567Z,1.95
2022-08-22T02:47:02.201Z,2.10
2022-08-22T02:49:33.540Z,1.77
2022-08-22T02:52:24.554Z,2.15
2022-08-22T02:54:58.317Z,2.00
2022-08-22T02:57:48.785Z,2.00
2022-08-22T03:00:32.374Z,2.17
2022-08-22T03:03:16.353Z,2.10
2022-08-22T03:05:44.022Z,2.08
2022-08-22T03:08:17.871Z,2.13
2022-08-22T03:10:55.166Z,1.80
2022-08-22T03:13:27.765Z,2.00
2022-08-22T03:15:57.138Z,2.20
2022-08-22T03:18:31.309Z,2.35
2022-08-22T03:21:12.368Z,2.30
2022-08-22T03:23:49.923Z,2.28
2022-08-22T03:26:28.490Z,1.95
2022-08-22T03:29:05.037Z,2.00
2022-08-22T03:31:33.298Z,2.10
2022-08-22T03:34:22.413Z,2.13
2022-08-22T03:37:03.257Z,2.58
2022-08-22T03:39:45.924Z,2.20
2022-08-22T03:42:18.168Z,2.30
2022-08-22T03:44:48.963Z,2.20
2022-08-22T03:47:35.581Z,2.45
2022-08-22T03:50:18.612Z,2.28
2022-08-22T03:53:04.785Z,2.20
2022-08-22T03:55:32.430Z,2.00
2022-08-22T03:58:00.239Z,2.03
2022-08-22T04:00:36.943Z,2.17
2022-08-22T04:03:05.016Z,2.30
2022-08-22T04:06:12.677Z,2.30
2022-08-22T04:08:49.642Z,2.42
2022-08-22T04:11:17.957Z,2.47
2022-08-22T04:14:04.141Z,2.28
2022-08-22T04:16:40.814Z,2.30
2022-08-22T04:19:20.189Z,2.55
2022-08-22T04:22:12.177Z,2.28
2022-08-22T04:25:03.590Z,2.15
2022-08-22T04:27:37.514Z,2.45
2022-08-22T04:30:08.082Z,2.20
2022-08-22T04:32:45.148Z,1.90
2022-08-22T04:35:18.843Z,2.20
2022-08-22T04:37:52.230Z,2.30
2022-08-22T04:40:29.380Z,2.45
2022-08-22T04:43:06.230Z,2.63
2022-08-22T04:45:42.375Z,2.65
2022-08-22T04:48:15.921Z,2.13
2022-08-22T04:50:49.497Z,2.30
2022-08-22T04:53:35.951Z,2.53
2022-08-22T04:56:08.297Z,2.25
2022-08-22T05:01:17.796Z,2.45
2022-08-22T05:03:50.889Z,2.30
2022-08-22T05:06:21.326Z,2.03
2022-08-22T05:08:53.945Z,2.70
2022-08-22T05:11:23.893Z,2.63
2022-08-22T05:13:54.885Z,2.53
2022-08-22T05:16:24.843Z,2.95
2022-08-22T05:18:58.069Z,2.40
2022-08-22T05:21:31.127Z,3.33
2022-08-22T05:23:58.782Z,3.30
2022-08-22T05:26:28.098Z,2.70
2022-08-22T05:29:01.644Z,2.88
2022-08-22T05:31:31.188Z,2.80
2022-08-22T05:34:03.703Z,3.20
2022-08-22T05:36:34.587Z,2.88
2022-08-22T05:39:12.932Z,2.13
2022-08-22T05:41:41.295Z,2.10
2022-08-22T05:44:17.777Z,2.20
2022-08-22T05:46:47.332Z,2.50
2022-08-22T05:49:38.941Z,2.00
2022-08-22T05:52:10.474Z,2.17
2022-08-22T05:54:51.203Z,2.28
2022-08-22T05:57:26.499Z,2.13
2022-08-22T05:59:58.607Z,2.20
2022-08-22T06:04:55.795Z,2.40
2022-08-22T06:07:29.738Z,1.80
2022-08-22T06:10:06.596Z,2.15
2022-08-22T06:12:39.817Z,2.38
2022-08-22T06:15:20.884Z,2.10
2022-08-22T06:17:50.273Z,1.77
2022-08-22T06:20:22.665Z,2.03
2022-08-22T06:22:53.669Z,1.80
2022-08-22T06:25:29.537Z,1.50
2022-08-22T06:27:58.391Z,1.90
2022-08-22T06:30:27.549Z,1.35
2022-08-22T06:32:59.051Z,2.60
2022-08-22T06:35:55.175Z,2.40
2022-08-22T06:38:25.932Z,1.88
2022-08-22T06:40:54.405Z,1.38
2022-08-22T06:43:24.331Z,1.60
2022-08-22T06:45:53.246Z,1.50
2022-08-22T06:48:23.501Z,1.30
2022-08-22T06:50:57.076Z,1.20
2022-08-22T06:53:36.709Z,1.50
2022-08-22T06:56:07.835Z,1.75
2022-08-22T06:58:46.738Z,1.60
2022-08-22T07:01:21.075Z,2.65
2022-08-22T07:03:53.289Z,1.90
2022-08-22T07:06:44.406Z,2.20
2022-08-22T07:09:20.969Z,1.67
2022-08-22T07:11:49.106Z,1.50
2022-08-22T07:14:18.685Z,1.52
2022-08-22T07:16:55.183Z,1.40
2022-08-22T07:19:25.653Z,2.10
2022-08-22T07:21:54.469Z,1.70
2022-08-22T07:24:25.451Z,1.40
2022-08-22T07:27:08.982Z,1.60
2022-08-22T07:29:42.597Z,1.50
2022-08-22T07:32:10.819Z,1.05
2022-08-22T07:34:50.672Z,1.25
2022-08-22T07:37:27.002Z,1.70
2022-08-22T07:40:14.306Z,1.10
2022-08-22T07:43:05.381Z,1.35
2022-08-22T07:45:38.185Z,1.20
2022-08-22T07:48:05.971Z,2.05
2022-08-22T07:50:41.001Z,1.30
2022-08-22T07:53:27.921Z,1.10
2022-08-22T07:55:57.117Z,1.60
2022-08-22T07:58:26.484Z,1.25
2022-08-22T08:00:54.943Z,2.33
2022-08-22T08:03:24.346Z,1.17
2022-08-22T08:05:52.255Z,1.23
2022-08-22T08:08:22.713Z,1.67
2022-08-22T08:10:51.332Z,2.75
2022-08-22T08:13:25.663Z,1.13
2022-08-22T08:15:53.674Z,1.60
2022-08-22T08:18:23.484Z,1.55
2022-08-22T08:20:57.960Z,1.40
2022-08-22T08:23:26.595Z,1.85
2022-08-22T08:25:56.595Z,2.92
2022-08-22T08:28:50.520Z,2.35
2022-08-22T08:31:21.540Z,1.20
2022-08-22T08:33:50.285Z,1.17
2022-08-22T08:36:32.472Z,1.20
2022-08-22T08:41:33.719Z,1.10
2022-08-22T08:44:22.674Z,1.60
2022-08-22T08:46:55.459Z,1.38
2022-08-22T08:49:27.238Z,1.42
2022-08-22T08:52:10.442Z,1.08
2022-08-22T08:55:02.434Z,1.30
2022-08-22T08:58:06.823Z,1.05
2022-08-22T09:00:49.001Z,1.00
2022-08-22T09:03:31.026Z,1.77
2022-08-22T09:06:02.417Z,1.15
2022-08-22T09:08:34.186Z,1.35
2022-08-22T09:11:28.494Z,1.60
2022-08-22T09:13:56.450Z,2.30
2022-08-22T09:16:24.603Z,1.30
2022-08-22T09:19:01.561Z,1.08
2022-08-22T09:21:31.219Z,3.63
2022-08-22T09:24:18.973Z,1.23
2022-08-22T09:26:58.794Z,1.60
2022-08-22T09:29:54.776Z,1.67
2022-08-22T09:32:33.739Z,1.10
2022-08-22T09:35:04.616Z,1.10
2022-08-22T09:37:42.274Z,0.93
2022-08-22T09:40:29.366Z,1.50
2022-08-22T09:43:05.455Z,3.08
2022-08-22T09:45:51.361Z,1.77
2022-08-22T09:48:19.035Z,1.23
2022-08-22T09:50:54.620Z,1.38
2022-08-22T09:53:26.587Z,1.40
2022-08-22T09:56:15.015Z,1.40
2022-08-22T09:58:46.323Z,1.38
2022-08-22T10:01:33.320Z,1.23
2022-08-22T10:04:19.921Z,1.38
2022-08-22T10:06:47.787Z,1.30
2022-08-22T10:09:25.302Z,1.52
2022-08-22T10:12:02.196Z,1.23
2022-08-22T10:17:21.933Z,1.25
2022-08-22T10:20:10.433Z,1.60
2022-08-22T10:22:53.509Z,1.27
2022-08-22T10:25:41.860Z,1.40
2022-08-22T10:28:39.434Z,1.70
2022-08-22T10:31:30.327Z,1.40
2022-08-22T10:34:10.675Z,1.50
2022-08-22T10:36:41.430Z,1.00
2022-08-22T10:39:11.956Z,1.50
2022-08-22T10:41:58.057Z,1.20
2022-08-22T10:44:31.938Z,1.27
2022-08-22T10:47:03.895Z,1.10
2022-08-22T10:49:39.468Z,1.20
2022-08-22T10:52:16.201Z,1.90
2022-08-22T10:54:51.451Z,1.60
2022-08-22T10:57:35.489Z,1.20
2022-08-22T11:00:15.775Z,1.30
2022-08-22T11:02:53.113Z,1.30
2022-08-22T11:05:21.055Z,1.15
2022-08-22T11:07:59.356Z,1.23
2022-08-22T11:10:39.524Z,1.45
2022-08-22T11:13:15.033Z,1.33
2022-08-22T11:16:01.459Z,1.30
2022-08-22T11:19:02.748Z,1.38
2022-08-22T11:21:51.026Z,1.65
2022-08-22T11:24:34.471Z,1.40
2022-08-22T11:27:08.929Z,1.30
2022-08-22T11:29:54.583Z,1.15
2022-08-22T11:32:23.034Z,1.40
2022-08-22T11:34:57.386Z,1.45
2022-08-22T11:37:43.276Z,1.45
2022-08-22T11:40:14.584Z,1.50
2022-08-22T11:42:47.527Z,1.42
2022-08-22T11:45:20.731Z,1.30
2022-08-22T11:47:57.609Z,1.45
2022-08-22T11:50:27.569Z,1.52
2022-08-22T11:52:58.474Z,1.55
2022-08-22T11:55:48.824Z,1.45
2022-08-22T11:58:32.537Z,1.20
2022-08-22T12:01:05.750Z,1.45
2022-08-22T12:03:36.530Z,1.50
2022-08-22T12:06:37.218Z,1.83
2022-08-22T12:09:15.771Z,1.42
2022-08-22T12:12:04.564Z,1.10
2022-08-22T12:14:42.861Z,1.60
2022-08-22T12:17:10.722Z,1.42
2022-08-22T12:20:12.837Z,1.25
2022-08-22T12:22:52.708Z,1.42
2022-08-22T12:25:23.470Z,1.55
2022-08-22T12:28:23.822Z,1.50
2022-08-22T12:30:54.757Z,1.20
2022-08-22T12:33:40.951Z,1.60
2022-08-22T12:36:23.970Z,1.50
2022-08-22T12:39:00.936Z,1.40
2022-08-22T12:41:48.283Z,1.23
2022-08-22T12:44:24.936Z,1.40
2022-08-22T12:47:04.358Z,1.67
2022-08-22T12:49:52.615Z,1.20
2022-08-22T12:52:39.246Z,1.30
2022-08-22T12:55:18.594Z,1.05
2022-08-22T12:58:04.786Z,1.40
2022-08-22T13:00:35.071Z,1.38
2022-08-22T13:03:05.501Z,1.10
2022-08-22T13:05:40.496Z,1.33
2022-08-22T13:08:13.035Z,1.13
2022-08-22T13:10:48.392Z,1.45
2022-08-22T13:13:38.590Z,1.23
2022-08-22T13:16:11.927Z,1.10
2022-08-22T13:18:59.990Z,1.17
2022-08-22T13:21:38.856Z,1.30
2022-08-22T13:24:16.940Z,1.88
2022-08-22T13:26:56.099Z,1.13
2022-08-22T13:29:42.494Z,2.03
2022-08-22T13:32:19.217Z,1.20
2022-08-22T13:35:00.756Z,1.30
2022-08-22T13:37:32.272Z,1.20
2022-08-22T13:40:02.531Z,1.13
2022-08-22T13:42:32.336Z,1.38
2022-08-22T13:45:04.692Z,1.30
2022-08-22T13:47:35.494Z,1.23
2022-08-22T13:50:13.971Z,1.50
2022-08-22T13:52:55.105Z,1.90
2022-08-22T13:55:31.084Z,1.10
2022-08-22T13:58:06.890Z,1.30
2022-08-22T14:00:58.698Z,1.20
2022-08-22T14:03:28.859Z,1.20
2022-08-22T14:06:37.581Z,1.20
2022-08-22T14:08:47.298Z,1.23
2022-08-22T14:11:15.917Z,1.33
2022-08-22T14:13:44.691Z,1.38
2022-08-22T14:16:21.577Z,1.10
2022-08-22T14:18:51.491Z,1.10
2022-08-22T14:21:28.025Z,1.30
2022-08-22T14:24:07.411Z,1.20
2022-08-22T14:26:47.341Z,1.50
2022-08-22T14:29:16.764Z,1.33
2022-08-22T14:31:56.247Z,1.05
2022-08-22T14:34:25.586Z,1.30
2022-08-22T14:37:03.362Z,1.23
2022-08-22T14:39:49.918Z,1.30
2022-08-22T14:42:26.583Z,1.10
2022-08-22T14:45:06.622Z,1.23
2022-08-22T14:47:55.115Z,1.38
2022-08-22T14:50:37.592Z,1.27
2022-08-22T14:53:07.819Z,1.30
2022-08-22T14:55:36.455Z,1.30
2022-08-22T14:58:27.580Z,1.38
2022-08-22T15:00:56.763Z,1.83
2022-08-22T15:03:24.521Z,1.10
2022-08-22T15:05:57.505Z,1.60
2022-08-22T15:08:34.890Z,1.63
2022-08-22T15:11:32.115Z,1.40
2022-08-22T15:14:13.471Z,1.40
2022-08-22T15:16:44.063Z,0.95
2022-08-22T15:19:23.818Z,1.10
2022-08-22T15:21:52.011Z,1.30
2022-08-22T15:24:19.902Z,1.17
2022-08-22T15:26:55.607Z,1.40
2022-08-22T15:29:27.808Z,1.60
2022-08-22T15:31:59.361Z,1.10
2022-08-22T15:34:33.336Z,1.23
2022-08-22T15:37:08.325Z,1.40
2022-08-22T15:39:57.930Z,1.00
2022-08-22T15:42:26.882Z,1.17
2022-08-22T15:44:55.624Z,1.25
2022-08-22T15:47:32.858Z,1.00
2022-08-22T15:50:05.552Z,1.20
2022-08-22T15:52:35.342Z,1.30
2022-08-22T15:55:07.638Z,1.30
2022-08-22T15:57:39.665Z,1.25
2022-08-22T16:02:42.634Z,1.10
2022-08-22T16:05:10.638Z,1.50
2022-08-22T16:07:41.145Z,1.20
2022-08-22T16:10:28.822Z,1.30
2022-08-22T16:13:11.701Z,1.27
2022-08-22T16:15:51.526Z,1.10
2022-08-22T16:18:42.622Z,1.40
2022-08-22T16:21:10.305Z,1.25
2022-08-22T16:23:46.977Z,1.30
2022-08-22T16:26:32.642Z,1.67
2022-08-22T16:29:00.389Z,1.10
2022-08-22T16:31:31.096Z,1.48
2022-08-22T16:34:18.843Z,1.20
2022-08-22T16:36:52.801Z,1.13
2022-08-22T16:39:23.747Z,1.45
2022-08-22T16:42:11.738Z,1.25
2022-08-22T16:44:42.524Z,1.30
2022-08-22T16:47:15.992Z,1.15
2022-08-22T16:49:49.855Z,1.00
2022-08-22T16:52:26.841Z,1.30
2022-08-22T16:55:00.364Z,1.40
2022-08-22T16:57:33.797Z,1.05
2022-08-22T17:00:01.563Z,1.25
2022-08-22T17:02:44.290Z,1.20
2022-08-22T17:05:23.925Z,1.33
2022-08-22T17:08:09.533Z,1.13
2022-08-22T17:10:37.286Z,1.20
2022-08-22T17:13:10.946Z,1.00
2022-08-22T17:15:47.633Z,1.20
2022-08-22T17:18:15.480Z,1.20
2022-08-22T17:21:10.412Z,1.17
2022-08-22T17:23:50.080Z,1.10
2022-08-22T17:26:28.732Z,1.10
2022-08-22T17:29:05.800Z,1.50
2022-08-22T17:31:59.526Z,1.40
2022-08-22T17:34:30.229Z,1.40
2022-08-22T17:37:05.414Z,1.52
2022-08-22T17:39:42.339Z,1.58
2022-08-22T17:42:35.101Z,1.92
2022-08-22T17:45:27.503Z,2.00
2022-08-22T17:47:56.477Z,1.85
2022-08-22T17:50:39.391Z,2.03
2022-08-22T17:53:09.915Z,1.98
2022-08-22T17:55:54.665Z,1.65
2022-08-22T17:58:37.697Z,1.40
2022-08-22T18:01:16.304Z,1.35
2022-08-22T18:03:47.365Z,1.50
2022-08-22T18:06:26.909Z,1.63
2022-08-22T18:09:18.314Z,1.90
2022-08-22T18:11:52.140Z,3.00
2022-08-22T18:14:26.005Z,2.63
2022-08-22T18:16:55.300Z,1.67
2022-08-22T18:22:33.112Z,2.05
2022-08-22T18:25:04.190Z,2.85
2022-08-22T18:27:37.986Z,4.28
2022-08-22T18:30:17.171Z,3.40
2022-08-22T18:32:47.704Z,2.97
2022-08-22T18:35:17.855Z,2.67
2022-08-22T18:40:30.470Z,2.65
2022-08-22T18:43:18.575Z,2.40
2022-08-22T18:45:46.247Z,2.50
2022-08-22T18:48:21.435Z,3.45
2022-08-22T18:50:50.027Z,3.75
2022-08-22T18:53:37.771Z,2.58
2022-08-22T18:56:19.516Z,2.10
2022-08-22T18:59:05.073Z,2.70
2022-08-22T19:01:42.112Z,2.70
2022-08-22T19:04:12.455Z,2.42
2022-08-22T19:06:43.141Z,3.88
2022-08-22T19:09:16.870Z,4.82
2022-08-22T19:11:47.644Z,4.10
2022-08-22T19:14:18.566Z,4.13
2022-08-22T19:16:54.577Z,2.65
2022-08-22T19:19:54.081Z,2.67
2022-08-22T19:22:25.154Z,2.80
2022-08-22T19:25:13.097Z,3.03
2022-08-22T19:27:42.175Z,3.15
2022-08-22T19:30:32.997Z,2.67
2022-08-22T19:33:02.842Z,3.03
2022-08-22T19:35:37.317Z,2.30
2022-08-22T19:38:07.138Z,2.20
2022-08-22T19:40:46.948Z,2.38
2022-08-22T19:43:26.913Z,1.95
2022-08-22T19:45:55.797Z,2.03
2022-08-22T19:48:28.095Z,1.90
2022-08-22T19:51:10.534Z,1.90
2022-08-22T19:53:45.957Z,1.77
2022-08-22T19:56:25.023Z,2.67
2022-08-22T19:59:00.242Z,1.95
2022-08-22T20:01:39.785Z,2.13
2022-08-22T20:04:27.821Z,2.08
2022-08-22T20:07:01.756Z,2.50
2022-08-22T20:09:50.973Z,2.10
2022-08-22T20:12:37.428Z,2.40
2022-08-22T20:15:31.316Z,2.00
2022-08-22T20:20:58.274Z,2.22
2022-08-22T20:23:28.719Z,2.05
2022-08-22T20:25:57.350Z,1.90
2022-08-22T20:29:00.280Z,2.28
2022-08-22T20:31:28.639Z,2.20
2022-08-22T20:33:59.270Z,2.10
2022-08-22T20:36:28.875Z,2.15
2022-08-22T20:39:00.777Z,1.98
2022-08-22T20:41:35.605Z,1.70
2022-08-22T20:44:23.800Z,1.30
2022-08-22T20:46:55.664Z,1.80
2022-08-22T20:49:26.584Z,1.70
2022-08-22T20:51:59.364Z,1.70
2022-08-22T20:54:28.829Z,2.00
2022-08-22T20:56:58.618Z,1.80
2022-08-22T20:59:29.670Z,2.08
2022-08-22T21:01:59.963Z,1.80
2022-08-22T21:04:32.241Z,1.83
2022-08-22T21:07:00.968Z,1.60
2022-08-22T21:09:47.804Z,1.92
2022-08-22T21:12:16.218Z,1.75
2022-08-22T21:14:46.318Z,1.70
2022-08-22T21:17:29.247Z,1.60
2022-08-22T21:20:22.740Z,2.10
2022-08-22T21:22:51.208Z,1.92
2022-08-22T21:25:19.235Z,1.70
2022-08-22T21:27:48.347Z,1.73
2022-08-22T21:30:22.978Z,1.73
2022-08-22T21:32:55.774Z,1.70
2022-08-22T21:35:24.694Z,1.55
2022-08-22T21:37:52.897Z,1.60
2022-08-22T21:40:23.920Z,1.50
2022-08-22T21:43:03.848Z,2.00
2022-08-22T21:45:41.501Z,1.80
2022-08-22T21:48:27.675Z,1.50
2022-08-22T21:50:55.417Z,1.80
2022-08-22T21:53:29.447Z,1.77
2022-08-22T21:56:11.367Z,1.50
2022-08-22T21:58:39.366Z,1.80
2022-08-22T22:01:25.072Z,1.70
2022-08-22T22:03:55.498Z,1.80
2022-08-22T22:06:23.263Z,1.50
2022-08-22T22:08:51.018Z,2.20
2022-08-22T22:11:18.999Z,1.65
2022-08-22T22:13:46.677Z,1.80
2022-08-22T22:16:16.224Z,1.80
2022-08-22T22:18:43.973Z,1.80
2022-08-22T22:21:11.752Z,1.88
2022-08-22T22:23:39.477Z,1.67
2022-08-22T22:26:07.385Z,1.52
2022-08-22T22:28:38.091Z,1.67
2022-08-22T22:31:06.062Z,1.60
2022-08-22T22:33:35.336Z,1.67
2022-08-22T22:36:20.754Z,1.60
2022-08-22T22:38:51.852Z,1.55
2022-08-22T22:41:23.355Z,1.40
2022-08-22T22:43:51.091Z,1.60
2022-08-22T22:46:19.515Z,1.60
2022-08-22T22:48:47.255Z,2.00
2022-08-22T22:51:15.001Z,1.58
2022-08-22T22:53:43.826Z,1.50
2022-08-22T22:56:15.985Z,2.08
2022-08-22T23:01:12.893Z,1.88
2022-08-22T23:03:40.776Z,1.80
2022-08-22T23:06:28.228Z,1.92
2022-08-22T23:08:56.527Z,1.60
2022-08-22T23:11:26.838Z,1.80
2022-08-22T23:13:55.075Z,1.80
2022-08-22T23:16:24.930Z,1.70
2022-08-22T23:18:52.734Z,1.63
2022-08-22T23:21:28.368Z,1.60
2022-08-22T23:23:57.349Z,1.70
2022-08-22T23:26:25.505Z,1.80
2022-08-22T23:28:53.435Z,1.88
2022-08-22T23:31:27.373Z,2.03
2022-08-22T23:33:55.486Z,1.40
2022-08-22T23:36:24.130Z,1.88
2022-08-22T23:38:52.611Z,1.83
2022-08-22T23:41:23.641Z,1.92
2022-08-22T23:43:53.022Z,2.10
2022-08-22T23:46:22.311Z,1.75
2022-08-22T23:48:50.131Z,1.75
2022-08-22T23:51:22.873Z,1.63
2022-08-22T23:53:51.854Z,1.80
2022-08-22T23:56:22.440Z,1.60
2022-08-22T23:58:51.238Z,1.70
